sensor_id;sensor_type;location;lat;lon;timestamp;temperature;humidity
26743;DHT22;14341;51.256;22.478;2022-07-05T00:01:16;15.90;99.90
26743;DHT22;14341;51.256;22.478;2022-07-05T00:04:21;15.90;99.90
26743;DHT22;14341;51.256;22.478;2022-07-05T00:07:25;15.90;99.90
26743;DHT22;14341;51.256;22.478;2022-07-05T00:10:28;15.90;99.90
26743;DHT22;14341;51.256;22.478;2022-07-05T00:13:32;15.80;99.90
26743;DHT22;14341;51.256;22.478;2022-07-05T00:16:35;15.80;99.90
26743;DHT22;14341;51.256;22.478;2022-07-05T00:19:41;15.80;99.90
26743;DHT22;14341;51.256;22.478;2022-07-05T00:22:46;15.80;99.90
26743;DHT22;14341;51.256;22.478;2022-07-05T00:25:50;15.70;99.90
26743;DHT22;14341;51.256;22.478;2022-07-05T00:28:54;15.50;99.90
26743;DHT22;14341;51.256;22.478;2022-07-05T00:31:58;15.60;99.90
26743;DHT22;14341;51.256;22.478;2022-07-05T00:35:06;15.50;99.90
26743;DHT22;14341;51.256;22.478;2022-07-05T00:38:10;15.60;99.90
26743;DHT22;14341;51.256;22.478;2022-07-05T00:41:14;15.30;99.90
26743;DHT22;14341;51.256;22.478;2022-07-05T00:44:28;15.30;99.90
26743;DHT22;14341;51.256;22.478;2022-07-05T00:48:22;15.30;99.90
26743;DHT22;14341;51.256;22.478;2022-07-05T00:52:10;15.00;99.90
26743;DHT22;14341;51.256;22.478;2022-07-05T00:55:22;15.30;99.90
26743;DHT22;14341;51.256;22.478;2022-07-05T00:58:29;15.40;99.90
26743;DHT22;14341;51.256;22.478;2022-07-05T01:01:34;14.90;99.90
26743;DHT22;14341;51.256;22.478;2022-07-05T01:04:39;15.20;99.90
26743;DHT22;14341;51.256;22.478;2022-07-05T01:07:45;15.30;99.90
26743;DHT22;14341;51.256;22.478;2022-07-05T01:10:49;15.20;99.90
26743;DHT22;14341;51.256;22.478;2022-07-05T01:13:53;15.00;99.90
26743;DHT22;14341;51.256;22.478;2022-07-05T01:16:56;15.40;99.90
26743;DHT22;14341;51.256;22.478;2022-07-05T01:20:00;15.40;99.90
26743;DHT22;14341;51.256;22.478;2022-07-05T01:23:06;15.30;99.90
26743;DHT22;14341;51.256;22.478;2022-07-05T01:26:09;15.20;99.90
26743;DHT22;14341;51.256;22.478;2022-07-05T01:29:13;15.10;99.90
26743;DHT22;14341;51.256;22.478;2022-07-05T01:32:16;15.10;99.90
26743;DHT22;14341;51.256;22.478;2022-07-05T01:35:20;15.10;99.90
26743;DHT22;14341;51.256;22.478;2022-07-05T01:38:25;15.10;99.90
26743;DHT22;14341;51.256;22.478;2022-07-05T01:41:29;15.00;99.90
26743;DHT22;14341;51.256;22.478;2022-07-05T01:44:32;15.00;99.90
26743;DHT22;14341;51.256;22.478;2022-07-05T01:47:37;14.90;99.90
26743;DHT22;14341;51.256;22.478;2022-07-05T01:50:45;14.90;99.90
26743;DHT22;14341;51.256;22.478;2022-07-05T01:53:52;14.90;99.90
26743;DHT22;14341;51.256;22.478;2022-07-05T01:56:56;14.90;99.90
26743;DHT22;14341;51.256;22.478;2022-07-05T02:00:01;14.80;99.90
26743;DHT22;14341;51.256;22.478;2022-07-05T02:03:15;14.70;99.90
26743;DHT22;14341;51.256;22.478;2022-07-05T02:06:39;14.70;99.90
26743;DHT22;14341;51.256;22.478;2022-07-05T02:09:45;14.70;99.90
26743;DHT22;14341;51.256;22.478;2022-07-05T02:12:48;14.70;99.90
26743;DHT22;14341;51.256;22.478;2022-07-05T02:15:53;14.60;99.90
26743;DHT22;14341;51.256;22.478;2022-07-05T02:18:57;14.60;99.90
26743;DHT22;14341;51.256;22.478;2022-07-05T02:22:04;13.50;99.90
26743;DHT22;14341;51.256;22.478;2022-07-05T02:25:09;14.70;99.90
26743;DHT22;14341;51.256;22.478;2022-07-05T02:28:13;14.80;99.90
26743;DHT22;14341;51.256;22.478;2022-07-05T02:31:20;14.90;99.90
26743;DHT22;14341;51.256;22.478;2022-07-05T02:34:26;15.00;99.90
26743;DHT22;14341;51.256;22.478;2022-07-05T02:37:30;15.00;99.90
26743;DHT22;14341;51.256;22.478;2022-07-05T02:40:37;15.10;99.90
26743;DHT22;14341;51.256;22.478;2022-07-05T02:43:41;15.10;99.90
26743;DHT22;14341;51.256;22.478;2022-07-05T02:46:44;15.20;99.90
26743;DHT22;14341;51.256;22.478;2022-07-05T02:49:48;15.20;99.90
26743;DHT22;14341;51.256;22.478;2022-07-05T02:52:54;15.30;99.90
26743;DHT22;14341;51.256;22.478;2022-07-05T02:55:59;15.20;99.90
26743;DHT22;14341;51.256;22.478;2022-07-05T02:59:02;15.30;99.90
26743;DHT22;14341;51.256;22.478;2022-07-05T03:02:10;15.40;99.90
26743;DHT22;14341;51.256;22.478;2022-07-05T03:05:16;15.60;99.90
26743;DHT22;14341;51.256;22.478;2022-07-05T03:08:29;15.70;99.90
26743;DHT22;14341;51.256;22.478;2022-07-05T03:11:35;15.90;99.90
26743;DHT22;14341;51.256;22.478;2022-07-05T03:14:40;16.10;99.90
26743;DHT22;14341;51.256;22.478;2022-07-05T03:17:44;16.30;99.90
26743;DHT22;14341;51.256;22.478;2022-07-05T03:20:50;16.70;99.90
26743;DHT22;14341;51.256;22.478;2022-07-05T03:23:55;16.90;99.90
26743;DHT22;14341;51.256;22.478;2022-07-05T03:27:00;17.00;99.90
26743;DHT22;14341;51.256;22.478;2022-07-05T03:30:05;17.20;99.90
26743;DHT22;14341;51.256;22.478;2022-07-05T03:33:11;17.50;99.90
26743;DHT22;14341;51.256;22.478;2022-07-05T03:36:18;17.80;99.90
26743;DHT22;14341;51.256;22.478;2022-07-05T03:39:22;18.20;99.90
26743;DHT22;14341;51.256;22.478;2022-07-05T03:42:29;18.40;99.90
26743;DHT22;14341;51.256;22.478;2022-07-05T03:45:33;18.50;99.90
26743;DHT22;14341;51.256;22.478;2022-07-05T03:48:36;18.90;99.90
26743;DHT22;14341;51.256;22.478;2022-07-05T03:51:44;19.10;99.90
26743;DHT22;14341;51.256;22.478;2022-07-05T03:54:48;19.00;99.90
26743;DHT22;14341;51.256;22.478;2022-07-05T03:57:55;19.20;99.90
26743;DHT22;14341;51.256;22.478;2022-07-05T04:00:59;19.10;99.90
26743;DHT22;14341;51.256;22.478;2022-07-05T04:04:04;19.30;99.90
26743;DHT22;14341;51.256;22.478;2022-07-05T04:07:08;19.30;99.90
26743;DHT22;14341;51.256;22.478;2022-07-05T04:10:12;19.20;99.90
26743;DHT22;14341;51.256;22.478;2022-07-05T04:13:17;19.00;99.90
26743;DHT22;14341;51.256;22.478;2022-07-05T04:16:22;19.00;99.90
26743;DHT22;14341;51.256;22.478;2022-07-05T04:19:28;18.90;99.90
26743;DHT22;14341;51.256;22.478;2022-07-05T04:22:32;18.80;99.90
26743;DHT22;14341;51.256;22.478;2022-07-05T04:25:36;18.70;99.90
26743;DHT22;14341;51.256;22.478;2022-07-05T04:28:55;18.60;99.90
26743;DHT22;14341;51.256;22.478;2022-07-05T04:32:04;18.60;99.90
26743;DHT22;14341;51.256;22.478;2022-07-05T04:35:09;18.50;99.90
26743;DHT22;14341;51.256;22.478;2022-07-05T04:38:14;18.50;99.90
26743;DHT22;14341;51.256;22.478;2022-07-05T04:41:18;18.50;99.90
26743;DHT22;14341;51.256;22.478;2022-07-05T04:44:24;18.50;99.90
26743;DHT22;14341;51.256;22.478;2022-07-05T04:47:28;18.50;99.90
26743;DHT22;14341;51.256;22.478;2022-07-05T04:50:32;18.50;99.90
26743;DHT22;14341;51.256;22.478;2022-07-05T04:53:37;18.60;99.90
26743;DHT22;14341;51.256;22.478;2022-07-05T04:56:40;18.70;99.90
26743;DHT22;14341;51.256;22.478;2022-07-05T04:59:45;18.70;99.90
26743;DHT22;14341;51.256;22.478;2022-07-05T05:02:49;18.90;99.90
26743;DHT22;14341;51.256;22.478;2022-07-05T05:05:52;19.10;99.90
26743;DHT22;14341;51.256;22.478;2022-07-05T05:08:56;19.10;99.90
26743;DHT22;14341;51.256;22.478;2022-07-05T05:11:59;19.20;99.90
26743;DHT22;14341;51.256;22.478;2022-07-05T05:15:05;19.40;99.90
26743;DHT22;14341;51.256;22.478;2022-07-05T05:18:11;19.60;99.90
26743;DHT22;14341;51.256;22.478;2022-07-05T05:21:15;19.70;99.90
26743;DHT22;14341;51.256;22.478;2022-07-05T05:24:18;19.80;99.90
26743;DHT22;14341;51.256;22.478;2022-07-05T05:27:22;20.10;99.90
26743;DHT22;14341;51.256;22.478;2022-07-05T05:30:27;20.40;99.90
26743;DHT22;14341;51.256;22.478;2022-07-05T05:33:30;20.90;99.90
26743;DHT22;14341;51.256;22.478;2022-07-05T05:36:34;21.10;99.90
26743;DHT22;14341;51.256;22.478;2022-07-05T05:39:38;21.20;99.90
26743;DHT22;14341;51.256;22.478;2022-07-05T05:42:42;21.30;99.90
26743;DHT22;14341;51.256;22.478;2022-07-05T05:45:47;21.40;99.90
26743;DHT22;14341;51.256;22.478;2022-07-05T05:48:51;21.30;99.90
26743;DHT22;14341;51.256;22.478;2022-07-05T05:51:54;21.20;99.90
26743;DHT22;14341;51.256;22.478;2022-07-05T05:54:57;21.40;99.90
26743;DHT22;14341;51.256;22.478;2022-07-05T05:58:11;21.50;99.90
26743;DHT22;14341;51.256;22.478;2022-07-05T06:01:16;21.40;99.90
26743;DHT22;14341;51.256;22.478;2022-07-05T06:04:19;21.50;99.90
26743;DHT22;14341;51.256;22.478;2022-07-05T06:07:23;21.60;99.90
26743;DHT22;14341;51.256;22.478;2022-07-05T06:10:29;21.60;99.90
26743;DHT22;14341;51.256;22.478;2022-07-05T06:17:27;21.60;99.90
26743;DHT22;14341;51.256;22.478;2022-07-05T06:20:32;21.70;99.90
26743;DHT22;14341;51.256;22.478;2022-07-05T06:23:36;21.60;99.90
26743;DHT22;14341;51.256;22.478;2022-07-05T06:26:40;21.70;99.90
26743;DHT22;14341;51.256;22.478;2022-07-05T06:29:43;21.80;99.90
26743;DHT22;14341;51.256;22.478;2022-07-05T06:32:49;21.90;99.90
26743;DHT22;14341;51.256;22.478;2022-07-05T06:35:52;21.90;99.90
26743;DHT22;14341;51.256;22.478;2022-07-05T06:38:56;21.90;99.90
26743;DHT22;14341;51.256;22.478;2022-07-05T06:41:59;21.90;99.90
26743;DHT22;14341;51.256;22.478;2022-07-05T06:45:03;22.00;99.90
26743;DHT22;14341;51.256;22.478;2022-07-05T06:48:09;21.90;99.90
26743;DHT22;14341;51.256;22.478;2022-07-05T06:51:13;22.10;99.90
26743;DHT22;14341;51.256;22.478;2022-07-05T06:54:17;21.80;99.90
26743;DHT22;14341;51.256;22.478;2022-07-05T06:57:40;21.90;99.90
26743;DHT22;14341;51.256;22.478;2022-07-05T07:01:05;22.10;99.90
26743;DHT22;14341;51.256;22.478;2022-07-05T07:04:26;22.10;99.90
26743;DHT22;14341;51.256;22.478;2022-07-05T07:07:35;22.40;99.90
26743;DHT22;14341;51.256;22.478;2022-07-05T07:10:56;22.70;99.90
26743;DHT22;14341;51.256;22.478;2022-07-05T07:13:59;22.90;99.90
26743;DHT22;14341;51.256;22.478;2022-07-05T07:17:03;22.90;99.90
26743;DHT22;14341;51.256;22.478;2022-07-05T07:20:09;23.20;99.90
26743;DHT22;14341;51.256;22.478;2022-07-05T07:23:12;23.40;99.90
26743;DHT22;14341;51.256;22.478;2022-07-05T07:26:18;23.70;99.90
26743;DHT22;14341;51.256;22.478;2022-07-05T07:29:22;23.80;99.90
26743;DHT22;14341;51.256;22.478;2022-07-05T07:32:25;24.30;99.90
26743;DHT22;14341;51.256;22.478;2022-07-05T07:35:30;24.40;99.90
26743;DHT22;14341;51.256;22.478;2022-07-05T07:38:34;24.60;99.90
26743;DHT22;14341;51.256;22.478;2022-07-05T07:41:37;24.80;99.90
26743;DHT22;14341;51.256;22.478;2022-07-05T07:44:40;25.00;99.90
26743;DHT22;14341;51.256;22.478;2022-07-05T07:47:44;25.00;99.90
26743;DHT22;14341;51.256;22.478;2022-07-05T07:50:49;24.90;99.90
26743;DHT22;14341;51.256;22.478;2022-07-05T07:53:52;25.00;99.90
26743;DHT22;14341;51.256;22.478;2022-07-05T07:57:05;24.80;99.90
26743;DHT22;14341;51.256;22.478;2022-07-05T08:00:09;25.00;99.90
26743;DHT22;14341;51.256;22.478;2022-07-05T08:03:13;24.80;99.90
26743;DHT22;14341;51.256;22.478;2022-07-05T08:06:18;24.90;99.90
26743;DHT22;14341;51.256;22.478;2022-07-05T08:09:21;24.80;99.90
26743;DHT22;14341;51.256;22.478;2022-07-05T08:12:24;25.30;99.90
26743;DHT22;14341;51.256;22.478;2022-07-05T08:15:28;25.50;94.50
26743;DHT22;14341;51.256;22.478;2022-07-05T08:18:31;26.10;92.50
26743;DHT22;14341;51.256;22.478;2022-07-05T08:21:54;26.60;49.20
26743;DHT22;14341;51.256;22.478;2022-07-05T08:24:57;26.80;42.40
26743;DHT22;14341;51.256;22.478;2022-07-05T08:28:01;26.50;92.30
26743;DHT22;14341;51.256;22.478;2022-07-05T08:31:04;27.00;85.10
26743;DHT22;14341;51.256;22.478;2022-07-05T08:34:08;27.50;24.90
26743;DHT22;14341;51.256;22.478;2022-07-05T08:37:13;27.40;39.60
26743;DHT22;14341;51.256;22.478;2022-07-05T08:40:19;27.00;1.00
26743;DHT22;14341;51.256;22.478;2022-07-05T08:43:26;27.10;1.00
26743;DHT22;14341;51.256;22.478;2022-07-05T08:46:32;27.50;1.00
26743;DHT22;14341;51.256;22.478;2022-07-05T08:49:37;27.70;1.00
26743;DHT22;14341;51.256;22.478;2022-07-05T08:52:45;28.10;1.00
26743;DHT22;14341;51.256;22.478;2022-07-05T08:55:49;28.20;1.00
26743;DHT22;14341;51.256;22.478;2022-07-05T08:58:53;28.20;1.00
26743;DHT22;14341;51.256;22.478;2022-07-05T09:01:57;28.20;1.00
26743;DHT22;14341;51.256;22.478;2022-07-05T09:05:02;28.30;1.00
26743;DHT22;14341;51.256;22.478;2022-07-05T09:08:09;28.00;1.00
26743;DHT22;14341;51.256;22.478;2022-07-05T09:11:15;27.80;1.00
26743;DHT22;14341;51.256;22.478;2022-07-05T09:14:20;27.40;1.00
26743;DHT22;14341;51.256;22.478;2022-07-05T09:17:30;26.90;7.80
26743;DHT22;14341;51.256;22.478;2022-07-05T09:20:33;27.40;34.60
26743;DHT22;14341;51.256;22.478;2022-07-05T09:23:38;27.70;16.10
26743;DHT22;14341;51.256;22.478;2022-07-05T09:26:43;27.20;1.00
26743;DHT22;14341;51.256;22.478;2022-07-05T09:29:54;27.50;17.70
26743;DHT22;14341;51.256;22.478;2022-07-05T09:33:06;27.20;55.80
26743;DHT22;14341;51.256;22.478;2022-07-05T09:36:10;26.60;61.90
26743;DHT22;14341;51.256;22.478;2022-07-05T09:39:15;26.00;99.90
26743;DHT22;14341;51.256;22.478;2022-07-05T09:42:20;26.00;99.60
26743;DHT22;14341;51.256;22.478;2022-07-05T09:45:25;25.70;99.90
26743;DHT22;14341;51.256;22.478;2022-07-05T09:48:29;25.40;99.90
26743;DHT22;14341;51.256;22.478;2022-07-05T09:51:48;24.70;99.90
26743;DHT22;14341;51.256;22.478;2022-07-05T09:55:04;25.00;99.90
26743;DHT22;14341;51.256;22.478;2022-07-05T09:58:12;25.10;99.90
26743;DHT22;14341;51.256;22.478;2022-07-05T10:01:26;24.90;99.90
26743;DHT22;14341;51.256;22.478;2022-07-05T10:04:30;24.80;99.90
26743;DHT22;14341;51.256;22.478;2022-07-05T10:07:33;24.80;99.90
26743;DHT22;14341;51.256;22.478;2022-07-05T10:10:41;24.80;99.90
26743;DHT22;14341;51.256;22.478;2022-07-05T10:13:49;24.60;99.90
26743;DHT22;14341;51.256;22.478;2022-07-05T10:16:59;24.50;99.90
26743;DHT22;14341;51.256;22.478;2022-07-05T10:20:06;24.70;99.90
26743;DHT22;14341;51.256;22.478;2022-07-05T10:23:13;24.60;99.90
26743;DHT22;14341;51.256;22.478;2022-07-05T10:26:18;24.50;99.90
26743;DHT22;14341;51.256;22.478;2022-07-05T10:29:22;24.60;99.90
26743;DHT22;14341;51.256;22.478;2022-07-05T10:32:28;24.60;99.90
26743;DHT22;14341;51.256;22.478;2022-07-05T10:35:32;24.60;99.90
26743;DHT22;14341;51.256;22.478;2022-07-05T10:38:36;24.40;99.90
26743;DHT22;14341;51.256;22.478;2022-07-05T10:41:42;24.30;99.90
26743;DHT22;14341;51.256;22.478;2022-07-05T10:44:46;24.50;99.90
26743;DHT22;14341;51.256;22.478;2022-07-05T10:48:17;24.40;99.90
26743;DHT22;14341;51.256;22.478;2022-07-05T10:51:21;24.30;99.90
26743;DHT22;14341;51.256;22.478;2022-07-05T10:54:25;24.10;99.90
26743;DHT22;14341;51.256;22.478;2022-07-05T10:57:30;24.10;99.90
26743;DHT22;14341;51.256;22.478;2022-07-05T11:00:33;24.10;99.90
26743;DHT22;14341;51.256;22.478;2022-07-05T11:03:38;24.20;99.90
26743;DHT22;14341;51.256;22.478;2022-07-05T11:06:42;24.00;99.90
26743;DHT22;14341;51.256;22.478;2022-07-05T11:09:59;24.10;99.90
26743;DHT22;14341;51.256;22.478;2022-07-05T11:13:37;24.10;99.90
26743;DHT22;14341;51.256;22.478;2022-07-05T11:16:40;24.30;99.90
26743;DHT22;14341;51.256;22.478;2022-07-05T11:20:05;24.00;99.90
26743;DHT22;14341;51.256;22.478;2022-07-05T11:23:11;23.90;99.90
26743;DHT22;14341;51.256;22.478;2022-07-05T11:26:17;23.70;99.90
26743;DHT22;14341;51.256;22.478;2022-07-05T11:29:42;23.60;99.90
26743;DHT22;14341;51.256;22.478;2022-07-05T11:32:46;23.50;99.90
26743;DHT22;14341;51.256;22.478;2022-07-05T11:35:49;23.50;99.90
26743;DHT22;14341;51.256;22.478;2022-07-05T11:39:12;23.20;99.90
26743;DHT22;14341;51.256;22.478;2022-07-05T11:42:19;23.30;99.90
26743;DHT22;14341;51.256;22.478;2022-07-05T11:45:25;23.60;99.90
26743;DHT22;14341;51.256;22.478;2022-07-05T11:48:29;23.70;99.90
26743;DHT22;14341;51.256;22.478;2022-07-05T11:51:32;23.80;99.90
26743;DHT22;14341;51.256;22.478;2022-07-05T11:54:36;24.10;99.90
26743;DHT22;14341;51.256;22.478;2022-07-05T11:57:49;24.50;99.90
26743;DHT22;14341;51.256;22.478;2022-07-05T12:00:55;24.50;99.90
26743;DHT22;14341;51.256;22.478;2022-07-05T12:03:59;24.70;99.90
26743;DHT22;14341;51.256;22.478;2022-07-05T12:07:03;24.70;99.90
26743;DHT22;14341;51.256;22.478;2022-07-05T12:10:07;24.60;99.90
26743;DHT22;14341;51.256;22.478;2022-07-05T12:13:50;24.70;99.90
26743;DHT22;14341;51.256;22.478;2022-07-05T12:17:14;24.90;99.90
26743;DHT22;14341;51.256;22.478;2022-07-05T12:20:25;25.00;99.90
26743;DHT22;14341;51.256;22.478;2022-07-05T12:23:29;24.80;99.90
26743;DHT22;14341;51.256;22.478;2022-07-05T12:26:32;24.80;99.90
26743;DHT22;14341;51.256;22.478;2022-07-05T12:29:36;24.60;99.90
26743;DHT22;14341;51.256;22.478;2022-07-05T12:32:57;24.00;99.90
26743;DHT22;14341;51.256;22.478;2022-07-05T12:36:02;23.90;99.90
26743;DHT22;14341;51.256;22.478;2022-07-05T12:39:05;23.60;99.90
26743;DHT22;14341;51.256;22.478;2022-07-05T12:42:09;23.50;99.90
26743;DHT22;14341;51.256;22.478;2022-07-05T12:45:13;23.40;99.90
26743;DHT22;14341;51.256;22.478;2022-07-05T12:48:30;23.40;99.90
26743;DHT22;14341;51.256;22.478;2022-07-05T12:51:35;23.40;99.90
26743;DHT22;14341;51.256;22.478;2022-07-05T12:54:39;23.40;99.90
26743;DHT22;14341;51.256;22.478;2022-07-05T12:58:00;23.30;99.90
26743;DHT22;14341;51.256;22.478;2022-07-05T13:01:21;23.20;99.90
26743;DHT22;14341;51.256;22.478;2022-07-05T13:04:26;23.50;99.90
26743;DHT22;14341;51.256;22.478;2022-07-05T13:07:29;23.50;99.90
26743;DHT22;14341;51.256;22.478;2022-07-05T13:10:46;23.50;99.90
26743;DHT22;14341;51.256;22.478;2022-07-05T13:13:49;23.40;99.90
26743;DHT22;14341;51.256;22.478;2022-07-05T13:16:53;23.20;99.90
26743;DHT22;14341;51.256;22.478;2022-07-05T13:19:58;23.10;99.90
26743;DHT22;14341;51.256;22.478;2022-07-05T13:23:03;22.90;99.90
26743;DHT22;14341;51.256;22.478;2022-07-05T13:26:06;22.50;99.90
26743;DHT22;14341;51.256;22.478;2022-07-05T13:29:10;22.20;99.90
26743;DHT22;14341;51.256;22.478;2022-07-05T13:32:13;22.00;99.90
26743;DHT22;14341;51.256;22.478;2022-07-05T13:35:20;21.80;99.90
26743;DHT22;14341;51.256;22.478;2022-07-05T13:38:23;21.60;99.90
26743;DHT22;14341;51.256;22.478;2022-07-05T13:41:27;21.40;99.90
26743;DHT22;14341;51.256;22.478;2022-07-05T13:44:31;21.30;99.90
26743;DHT22;14341;51.256;22.478;2022-07-05T13:47:34;21.20;99.90
26743;DHT22;14341;51.256;22.478;2022-07-05T13:50:39;21.20;99.90
26743;DHT22;14341;51.256;22.478;2022-07-05T13:53:43;21.10;99.90
26743;DHT22;14341;51.256;22.478;2022-07-05T13:56:46;21.00;99.90
26743;DHT22;14341;51.256;22.478;2022-07-05T13:59:54;20.90;99.90
26743;DHT22;14341;51.256;22.478;2022-07-05T14:02:57;20.90;99.90
26743;DHT22;14341;51.256;22.478;2022-07-05T14:06:08;20.90;99.90
26743;DHT22;14341;51.256;22.478;2022-07-05T14:09:12;20.90;99.90
26743;DHT22;14341;51.256;22.478;2022-07-05T14:12:15;20.90;99.90
26743;DHT22;14341;51.256;22.478;2022-07-05T14:15:19;20.90;99.90
26743;DHT22;14341;51.256;22.478;2022-07-05T14:18:23;20.90;99.90
26743;DHT22;14341;51.256;22.478;2022-07-05T14:21:29;20.80;99.90
26743;DHT22;14341;51.256;22.478;2022-07-05T14:24:39;20.70;99.90
26743;DHT22;14341;51.256;22.478;2022-07-05T14:27:43;20.60;99.90
26743;DHT22;14341;51.256;22.478;2022-07-05T14:30:46;20.60;99.90
26743;DHT22;14341;51.256;22.478;2022-07-05T14:33:50;20.60;99.90
26743;DHT22;14341;51.256;22.478;2022-07-05T14:36:55;20.60;99.90
26743;DHT22;14341;51.256;22.478;2022-07-05T14:39:58;20.60;99.90
26743;DHT22;14341;51.256;22.478;2022-07-05T14:43:02;20.60;99.90
26743;DHT22;14341;51.256;22.478;2022-07-05T14:46:06;20.60;99.90
26743;DHT22;14341;51.256;22.478;2022-07-05T14:49:13;20.60;99.90
26743;DHT22;14341;51.256;22.478;2022-07-05T14:52:18;20.60;99.90
26743;DHT22;14341;51.256;22.478;2022-07-05T14:55:22;20.70;99.90
26743;DHT22;14341;51.256;22.478;2022-07-05T14:58:25;20.60;99.90
26743;DHT22;14341;51.256;22.478;2022-07-05T15:01:33;20.80;99.90
26743;DHT22;14341;51.256;22.478;2022-07-05T15:04:37;20.90;99.90
26743;DHT22;14341;51.256;22.478;2022-07-05T15:07:42;20.90;99.90
26743;DHT22;14341;51.256;22.478;2022-07-05T15:10:46;20.90;99.90
26743;DHT22;14341;51.256;22.478;2022-07-05T15:13:51;20.80;99.90
26743;DHT22;14341;51.256;22.478;2022-07-05T15:16:55;20.80;99.90
26743;DHT22;14341;51.256;22.478;2022-07-05T15:19:59;20.70;99.90
26743;DHT22;14341;51.256;22.478;2022-07-05T15:23:03;20.50;99.90
26743;DHT22;14341;51.256;22.478;2022-07-05T15:26:07;20.50;99.90
26743;DHT22;14341;51.256;22.478;2022-07-05T15:29:10;20.40;99.90
26743;DHT22;14341;51.256;22.478;2022-07-05T15:32:14;20.30;99.90
26743;DHT22;14341;51.256;22.478;2022-07-05T15:35:18;20.20;99.90
26743;DHT22;14341;51.256;22.478;2022-07-05T15:38:23;20.10;99.90
26743;DHT22;14341;51.256;22.478;2022-07-05T15:41:27;20.00;99.90
26743;DHT22;14341;51.256;22.478;2022-07-05T15:44:31;20.00;99.90
26743;DHT22;14341;51.256;22.478;2022-07-05T15:47:34;20.00;99.90
26743;DHT22;14341;51.256;22.478;2022-07-05T15:50:39;19.90;99.90
26743;DHT22;14341;51.256;22.478;2022-07-05T15:53:44;19.90;99.90
26743;DHT22;14341;51.256;22.478;2022-07-05T15:56:48;19.80;99.90
26743;DHT22;14341;51.256;22.478;2022-07-05T15:59:59;19.70;99.90
26743;DHT22;14341;51.256;22.478;2022-07-05T16:03:08;19.70;99.90
26743;DHT22;14341;51.256;22.478;2022-07-05T16:06:11;19.60;99.90
26743;DHT22;14341;51.256;22.478;2022-07-05T16:09:16;19.60;99.90
26743;DHT22;14341;51.256;22.478;2022-07-05T16:12:20;19.60;99.90
26743;DHT22;14341;51.256;22.478;2022-07-05T16:15:23;19.50;99.90
26743;DHT22;14341;51.256;22.478;2022-07-05T16:18:45;19.40;99.90
26743;DHT22;14341;51.256;22.478;2022-07-05T16:21:49;19.40;99.90
26743;DHT22;14341;51.256;22.478;2022-07-05T16:24:54;19.30;99.90
26743;DHT22;14341;51.256;22.478;2022-07-05T16:27:58;19.30;99.90
26743;DHT22;14341;51.256;22.478;2022-07-05T16:31:02;19.20;99.90
26743;DHT22;14341;51.256;22.478;2022-07-05T16:34:06;19.10;99.90
26743;DHT22;14341;51.256;22.478;2022-07-05T16:37:12;19.20;99.90
26743;DHT22;14341;51.256;22.478;2022-07-05T16:40:17;19.10;99.90
26743;DHT22;14341;51.256;22.478;2022-07-05T16:43:20;19.10;99.90
26743;DHT22;14341;51.256;22.478;2022-07-05T16:46:24;19.10;99.90
26743;DHT22;14341;51.256;22.478;2022-07-05T16:49:29;19.10;99.90
26743;DHT22;14341;51.256;22.478;2022-07-05T16:52:32;19.10;99.90
26743;DHT22;14341;51.256;22.478;2022-07-05T16:55:37;19.00;99.90
26743;DHT22;14341;51.256;22.478;2022-07-05T16:58:43;18.90;99.90
26743;DHT22;14341;51.256;22.478;2022-07-05T17:01:47;18.90;99.90
26743;DHT22;14341;51.256;22.478;2022-07-05T17:04:50;18.80;99.90
26743;DHT22;14341;51.256;22.478;2022-07-05T17:07:54;18.80;99.90
26743;DHT22;14341;51.256;22.478;2022-07-05T17:10:59;18.80;99.90
26743;DHT22;14341;51.256;22.478;2022-07-05T17:14:03;18.80;99.90
26743;DHT22;14341;51.256;22.478;2022-07-05T17:17:06;18.60;99.90
26743;DHT22;14341;51.256;22.478;2022-07-05T17:20:10;18.60;99.90
26743;DHT22;14341;51.256;22.478;2022-07-05T17:23:14;18.60;99.90
26743;DHT22;14341;51.256;22.478;2022-07-05T17:26:21;18.50;99.90
26743;DHT22;14341;51.256;22.478;2022-07-05T17:29:24;18.40;99.90
26743;DHT22;14341;51.256;22.478;2022-07-05T17:32:28;18.40;99.90
26743;DHT22;14341;51.256;22.478;2022-07-05T17:35:43;18.40;99.90
26743;DHT22;14341;51.256;22.478;2022-07-05T17:38:52;18.30;99.90
26743;DHT22;14341;51.256;22.478;2022-07-05T17:42:04;18.30;99.90
26743;DHT22;14341;51.256;22.478;2022-07-05T17:45:09;18.30;99.90
26743;DHT22;14341;51.256;22.478;2022-07-05T17:48:12;18.30;99.90
26743;DHT22;14341;51.256;22.478;2022-07-05T17:51:23;18.30;99.90
26743;DHT22;14341;51.256;22.478;2022-07-05T17:54:53;18.20;99.90
26743;DHT22;14341;51.256;22.478;2022-07-05T17:58:00;18.20;99.90
26743;DHT22;14341;51.256;22.478;2022-07-05T18:01:39;18.10;99.90
26743;DHT22;14341;51.256;22.478;2022-07-05T18:04:42;18.10;99.90
26743;DHT22;14341;51.256;22.478;2022-07-05T18:07:46;18.20;99.90
26743;DHT22;14341;51.256;22.478;2022-07-05T18:10:51;18.10;99.90
26743;DHT22;14341;51.256;22.478;2022-07-05T18:14:01;18.10;99.90
26743;DHT22;14341;51.256;22.478;2022-07-05T18:17:18;18.20;99.90
26743;DHT22;14341;51.256;22.478;2022-07-05T18:20:22;18.20;99.90
26743;DHT22;14341;51.256;22.478;2022-07-05T18:23:26;18.10;99.90
26743;DHT22;14341;51.256;22.478;2022-07-05T18:26:29;18.10;99.90
26743;DHT22;14341;51.256;22.478;2022-07-05T18:29:54;18.10;99.90
26743;DHT22;14341;51.256;22.478;2022-07-05T18:33:00;18.10;99.90
26743;DHT22;14341;51.256;22.478;2022-07-05T18:36:04;18.10;99.90
26743;DHT22;14341;51.256;22.478;2022-07-05T18:39:08;18.10;99.90
26743;DHT22;14341;51.256;22.478;2022-07-05T18:42:18;18.10;99.90
26743;DHT22;14341;51.256;22.478;2022-07-05T18:45:25;18.10;99.90
26743;DHT22;14341;51.256;22.478;2022-07-05T18:48:38;18.10;99.90
26743;DHT22;14341;51.256;22.478;2022-07-05T18:52:06;18.00;99.90
26743;DHT22;14341;51.256;22.478;2022-07-05T18:55:16;18.00;99.90
26743;DHT22;14341;51.256;22.478;2022-07-05T18:58:20;18.40;99.90
26743;DHT22;14341;51.256;22.478;2022-07-05T19:01:37;17.90;99.90
26743;DHT22;14341;51.256;22.478;2022-07-05T19:04:43;17.70;99.90
26743;DHT22;14341;51.256;22.478;2022-07-05T19:07:47;17.60;99.90
26743;DHT22;14341;51.256;22.478;2022-07-05T19:11:40;17.50;99.90
26743;DHT22;14341;51.256;22.478;2022-07-05T19:15:39;17.40;99.90
26743;DHT22;14341;51.256;22.478;2022-07-05T19:18:45;17.30;99.90
26743;DHT22;14341;51.256;22.478;2022-07-05T19:21:48;17.20;99.90
26743;DHT22;14341;51.256;22.478;2022-07-05T19:28:25;17.20;99.90
26743;DHT22;14341;51.256;22.478;2022-07-05T19:31:30;17.00;99.90